Main page
Satellite images 10-day forecastsClimateMarine weather Cyclones Lightning AirportsFAQ Newsletter About
Weather : Europe Africa North America South America Asia Australia-Oceania Others
Languages Contact

Warsaw, Poland

Fryderyk Chopin

latitude: 52-10N, longitude: 020-58E, elevation: 106 m


METAR: EPWA 251800Z 31007KT 4300 -SN BR BKN006 M01/M02 Q1021 R33/510295 TEMPO BKN005
TAF: EPWA 251730Z 2518/2618 32007KT 5000 BR BKN008 TEMPO 2518/2609 3000 -SN BR BKN005 BECMG 2611/2614 8000 NSW

Time: 19:13 (18:13 UTC)

Current weather observation

The report was made 13 minutes ago, at 18:00 UTC
Wind 7 kt from the Northwest
Temperature -1°C
Humidity 93%
Pressure 1021 hPa
Visibility: 4300 m
Broken clouds at a height of 600 ft
light snow and mist

Change units

Forecast

The report was made 43 minutes ago, at 17:30 UTC
Forecast valid from 25 at 18 UTC to 26 at 18 UTC
Wind 7 kt from the Northwest
Visibility: 5000 m
Broken clouds at a height of 800 ft
mist
Temporary
from 25 at 18 UTC to 26 at 09 UTC
Visibility: 3000 m
Broken clouds at a height of 500 ft
light snow and mist
Becoming
from 26 at 11 UTC to 26 at 14 UTC
Visibility: 8000 m
The information on this site is subject to a disclaimer
Weather : Europe Africa North America South America Asia Australia-Oceania Others
Satellite images 10-day forecastsClimateMarine weather Cyclones Lightning AirportsFAQ Languages Contact Newsletter About